TKJ68H LTAC-LTCM
Flight info
| Callsign | TKJ68H |
|---|---|
| Flight time | 0h 39m |
| Altitude | 24000 |
| Route | ASTAL1B/21R ASTAL A28 INB/N0413F230 W90 SUNUM |
| Aircraft | B738/M-SDE2E3FGHIRWXY/LB1 |
Departure
| Time | 2026-04-23 20:50 |
|---|---|
| Airport | Esenboğa International Airport (LTAC) |
Arrival
| Time | 2026-04-23 21:30 |
|---|---|
| Airport | Sinop Airport (LTCM) |
| Time | Latitude | Longitude | Altitude | Speed | Heading |
|---|---|---|---|---|---|
| 2026-04-23 20:12 | 40.11928 | 32.99366 | 3112 ft | 0 kts | 348° |
| 2026-04-23 20:29 | 40.11911 | 32.99370 | 3112 ft | 3 kts | 348° |
| 2026-04-23 20:29 | 40.11892 | 32.99375 | 3112 ft | 3 kts | 348° |
| 2026-04-23 20:29 | 40.11874 | 32.99380 | 3112 ft | 3 kts | 348° |
| 2026-04-23 20:29 | 40.11866 | 32.99382 | 3112 ft | 0 kts | 17° |
| 2026-04-23 20:32 | 40.11852 | 32.99369 | 3112 ft | 3 kts | 78° |
| 2026-04-23 20:32 | 40.11852 | 32.99358 | 3112 ft | 0 kts | 98° |
| 2026-04-23 20:33 | 40.11852 | 32.99357 | 3112 ft | 0 kts | 98° |
| 2026-04-23 20:33 | 40.11852 | 32.99353 | 3112 ft | 1 kts | 98° |
| 2026-04-23 20:33 | 40.11853 | 32.99375 | 3112 ft | 4 kts | 90° |
| 2026-04-23 20:34 | 40.11833 | 32.99384 | 3112 ft | 4 kts | 211° |
| 2026-04-23 20:34 | 40.11830 | 32.99365 | 3112 ft | 0 kts | 266° |
| 2026-04-23 20:34 | 40.11830 | 32.99361 | 3112 ft | 0 kts | 266° |
| 2026-04-23 20:34 | 40.11829 | 32.99358 | 3112 ft | 0 kts | 266° |
| 2026-04-23 20:35 | 40.11829 | 32.99354 | 3112 ft | 0 kts | 266° |
| 2026-04-23 20:35 | 40.11829 | 32.99348 | 3112 ft | 2 kts | 267° |
| 2026-04-23 20:35 | 40.11827 | 32.99284 | 3112 ft | 10 kts | 259° |
| 2026-04-23 20:35 | 40.11805 | 32.99200 | 3112 ft | 10 kts | 246° |
| 2026-04-23 20:36 | 40.11791 | 32.99162 | 3112 ft | 0 kts | 242° |
| 2026-04-23 20:36 | 40.11790 | 32.99160 | 3112 ft | 0 kts | 241° |
| 2026-04-23 20:36 | 40.11783 | 32.99143 | 3112 ft | 8 kts | 248° |
| 2026-04-23 20:36 | 40.11797 | 32.99056 | 3112 ft | 11 kts | 312° |
| 2026-04-23 20:37 | 40.11863 | 32.99059 | 3113 ft | 11 kts | 36° |
| 2026-04-23 20:37 | 40.11933 | 32.99126 | 3113 ft | 16 kts | 36° |
| 2026-04-23 20:37 | 40.12019 | 32.99208 | 3114 ft | 15 kts | 36° |
| 2026-04-23 20:37 | 40.12103 | 32.99288 | 3116 ft | 15 kts | 36° |
| 2026-04-23 20:38 | 40.12198 | 32.99379 | 3117 ft | 20 kts | 36° |
| 2026-04-23 20:38 | 40.12324 | 32.99499 | 3118 ft | 25 kts | 36° |
| 2026-04-23 20:38 | 40.12470 | 32.99638 | 3120 ft | 27 kts | 36° |
| 2026-04-23 20:38 | 40.12616 | 32.99778 | 3122 ft | 25 kts | 36° |
| 2026-04-23 20:39 | 40.12752 | 32.99907 | 3122 ft | 23 kts | 36° |
| 2026-04-23 20:39 | 40.12881 | 33.00028 | 3121 ft | 23 kts | 36° |
| 2026-04-23 20:39 | 40.13005 | 33.00149 | 3122 ft | 22 kts | 37° |
| 2026-04-23 20:39 | 40.13126 | 33.00265 | 3122 ft | 21 kts | 36° |
| 2026-04-23 20:40 | 40.13243 | 33.00377 | 3127 ft | 21 kts | 36° |
| 2026-04-23 20:40 | 40.13358 | 33.00486 | 3129 ft | 20 kts | 36° |
| 2026-04-23 20:40 | 40.13469 | 33.00591 | 3130 ft | 19 kts | 36° |
| 2026-04-23 20:40 | 40.13576 | 33.00693 | 3131 ft | 19 kts | 36° |
| 2026-04-23 20:41 | 40.13678 | 33.00792 | 3132 ft | 18 kts | 37° |
| 2026-04-23 20:41 | 40.13777 | 33.00889 | 3133 ft | 18 kts | 36° |
| 2026-04-23 20:41 | 40.13874 | 33.00982 | 3134 ft | 17 kts | 36° |
| 2026-04-23 20:41 | 40.13965 | 33.01064 | 3135 ft | 11 kts | 26° |
| 2026-04-23 20:42 | 40.14037 | 33.01072 | 3135 ft | 11 kts | 342° |
| 2026-04-23 20:42 | 40.14072 | 33.01046 | 3135 ft | 0 kts | 319° |
| 2026-04-23 20:47 | 40.14075 | 33.01043 | 3135 ft | 2 kts | 318° |
| 2026-04-23 20:47 | 40.14093 | 33.01014 | 3135 ft | 6 kts | 299° |
| 2026-04-23 20:47 | 40.14111 | 33.00945 | 3135 ft | 10 kts | 288° |
| 2026-04-23 20:48 | 40.14157 | 33.00853 | 3135 ft | 14 kts | 306° |
| 2026-04-23 20:48 | 40.14214 | 33.00743 | 3135 ft | 15 kts | 292° |
| 2026-04-23 20:48 | 40.14158 | 33.00640 | 3134 ft | 15 kts | 216° |
| 2026-04-23 20:48 | 40.14138 | 33.00621 | 3134 ft | 0 kts | 216° |
| 2026-04-23 20:49 | 40.14100 | 33.00585 | 3134 ft | 34 kts | 216° |
| 2026-04-23 20:50 | 40.13677 | 33.00177 | 3130 ft | 115 kts | 216° |
| 2026-04-23 20:50 | 40.12839 | 32.99374 | 3139 ft | 181 kts | 216° |
| 2026-04-23 20:50 | 40.11740 | 32.98344 | 3802 ft | 197 kts | 216° |
| 2026-04-23 20:50 | 40.10679 | 32.97321 | 5145 ft | 179 kts | 218° |
| 2026-04-23 20:51 | 40.09714 | 32.96401 | 6294 ft | 166 kts | 218° |
| 2026-04-23 20:51 | 40.08776 | 32.95495 | 6918 ft | 174 kts | 219° |
| 2026-04-23 20:51 | 40.07809 | 32.94531 | 7609 ft | 175 kts | 220° |
| 2026-04-23 20:51 | 40.06835 | 32.93548 | 8303 ft | 179 kts | 220° |
| 2026-04-23 20:52 | 40.05839 | 32.92554 | 8979 ft | 185 kts | 220° |
| 2026-04-23 20:52 | 40.04777 | 32.91507 | 9581 ft | 189 kts | 220° |
| 2026-04-23 20:52 | 40.03689 | 32.90497 | 9997 ft | 207 kts | 218° |
| 2026-04-23 20:52 | 40.02426 | 32.89364 | 10029 ft | 234 kts | 218° |
| 2026-04-23 20:53 | 40.01012 | 32.88084 | 10016 ft | 258 kts | 217° |
| 2026-04-23 20:53 | 39.99531 | 32.86729 | 9992 ft | 261 kts | 218° |
| 2026-04-23 20:53 | 39.98047 | 32.85358 | 9997 ft | 261 kts | 218° |
| 2026-04-23 20:53 | 39.96566 | 32.83985 | 9993 ft | 264 kts | 218° |
| 2026-04-23 20:54 | 39.95020 | 32.82525 | 10085 ft | 282 kts | 222° |
| 2026-04-23 20:54 | 39.93821 | 32.80419 | 10308 ft | 303 kts | 252° |
| 2026-04-23 20:54 | 39.93593 | 32.77617 | 10520 ft | 325 kts | 277° |
| 2026-04-23 20:54 | 39.94313 | 32.74735 | 10782 ft | 346 kts | 298° |
| 2026-04-23 20:55 | 39.95858 | 32.72279 | 11450 ft | 356 kts | 318° |
| 2026-04-23 20:55 | 39.98012 | 32.70666 | 12259 ft | 365 kts | 338° |
| 2026-04-23 20:55 | 40.00562 | 32.70240 | 13024 ft | 378 kts | 1° |
| 2026-04-23 20:55 | 40.03158 | 32.71059 | 13737 ft | 391 kts | 16° |
| 2026-04-23 20:56 | 40.05690 | 32.72486 | 14306 ft | 401 kts | 21° |
| 2026-04-23 20:56 | 40.08206 | 32.74110 | 14953 ft | 405 kts | 23° |
| 2026-04-23 20:56 | 40.10709 | 32.75741 | 15543 ft | 410 kts | 22° |
| 2026-04-23 20:56 | 40.13331 | 32.77396 | 16071 ft | 417 kts | 21° |
| 2026-04-23 20:57 | 40.15950 | 32.78986 | 16591 ft | 423 kts | 20° |
| 2026-04-23 20:57 | 40.18655 | 32.80579 | 17156 ft | 428 kts | 20° |
| 2026-04-23 20:57 | 40.21403 | 32.82166 | 17690 ft | 434 kts | 19° |
| 2026-04-23 20:57 | 40.24186 | 32.83800 | 18254 ft | 440 kts | 19° |
| 2026-04-23 20:58 | 40.27002 | 32.85406 | 18772 ft | 443 kts | 18° |
| 2026-04-23 20:58 | 40.29854 | 32.87011 | 19328 ft | 446 kts | 18° |
| 2026-04-23 20:58 | 40.32695 | 32.88615 | 20025 ft | 445 kts | 18° |
| 2026-04-23 20:58 | 40.35542 | 32.90226 | 20605 ft | 446 kts | 18° |
| 2026-04-23 20:59 | 40.38381 | 32.91796 | 20977 ft | 451 kts | 18° |
| 2026-04-23 20:59 | 40.41298 | 32.93460 | 20989 ft | 463 kts | 19° |
| 2026-04-23 20:59 | 40.44282 | 32.95183 | 21008 ft | 473 kts | 19° |
| 2026-04-23 20:59 | 40.47331 | 32.96946 | 20992 ft | 481 kts | 19° |
| 2026-04-23 21:00 | 40.50393 | 32.98717 | 20999 ft | 480 kts | 19° |
| 2026-04-23 21:00 | 40.53435 | 33.00477 | 20992 ft | 475 kts | 19° |
| 2026-04-23 21:00 | 40.56472 | 33.02229 | 21018 ft | 476 kts | 19° |
| 2026-04-23 21:00 | 40.59493 | 33.03969 | 21004 ft | 474 kts | 19° |
| 2026-04-23 21:01 | 40.62515 | 33.05710 | 21000 ft | 473 kts | 19° |
| 2026-04-23 21:01 | 40.65521 | 33.07442 | 21008 ft | 472 kts | 19° |
| 2026-04-23 21:01 | 40.68537 | 33.09182 | 20997 ft | 472 kts | 19° |
| 2026-04-23 21:01 | 40.71550 | 33.10923 | 21025 ft | 472 kts | 19° |
| 2026-04-23 21:02 | 40.73543 | 33.12075 | 21024 ft | 472 kts | 19° |
| 2026-04-23 21:02 | 40.77613 | 33.14217 | 21016 ft | 470 kts | 15° |
| 2026-04-23 21:02 | 40.80701 | 33.15634 | 21014 ft | 469 kts | 14° |
| 2026-04-23 21:02 | 40.83751 | 33.17001 | 21015 ft | 467 kts | 15° |
| 2026-04-23 21:03 | 40.86814 | 33.18407 | 21011 ft | 465 kts | 15° |
| 2026-04-23 21:03 | 40.89856 | 33.19839 | 21013 ft | 462 kts | 16° |
| 2026-04-23 21:03 | 40.92867 | 33.21275 | 21021 ft | 459 kts | 16° |
| 2026-04-23 21:03 | 40.95871 | 33.22714 | 21016 ft | 458 kts | 16° |
| 2026-04-23 21:04 | 40.98873 | 33.24149 | 21021 ft | 457 kts | 16° |
| 2026-04-23 21:04 | 41.01865 | 33.25578 | 21032 ft | 457 kts | 16° |
| 2026-04-23 21:04 | 41.04861 | 33.27004 | 21022 ft | 458 kts | 16° |
| 2026-04-23 21:04 | 41.07867 | 33.28430 | 21034 ft | 458 kts | 16° |
| 2026-04-23 21:05 | 41.10826 | 33.29834 | 21036 ft | 458 kts | 17° |
| 2026-04-23 21:05 | 41.13830 | 33.31263 | 21038 ft | 458 kts | 17° |
| 2026-04-23 21:05 | 41.16836 | 33.32694 | 21027 ft | 458 kts | 17° |
| 2026-04-23 21:05 | 41.19834 | 33.34123 | 21029 ft | 457 kts | 17° |
| 2026-04-23 21:06 | 41.22826 | 33.35551 | 21048 ft | 457 kts | 17° |
| 2026-04-23 21:06 | 41.25813 | 33.36979 | 21042 ft | 455 kts | 17° |
| 2026-04-23 21:06 | 41.28793 | 33.38404 | 21029 ft | 454 kts | 17° |
| 2026-04-23 21:06 | 41.31753 | 33.39824 | 21034 ft | 450 kts | 17° |
| 2026-04-23 21:07 | 41.34693 | 33.41238 | 21039 ft | 448 kts | 17° |
| 2026-04-23 21:07 | 41.37631 | 33.42652 | 21065 ft | 452 kts | 17° |
| 2026-04-23 21:07 | 41.39600 | 33.43599 | 21331 ft | 454 kts | 17° |
| 2026-04-23 21:07 | 41.43562 | 33.45511 | 22297 ft | 449 kts | 17° |
| 2026-04-23 21:08 | 41.45505 | 33.46450 | 22807 ft | 446 kts | 17° |
| 2026-04-23 21:08 | 41.49354 | 33.48311 | 23715 ft | 442 kts | 17° |
| 2026-04-23 21:08 | 41.52238 | 33.49707 | 24012 ft | 443 kts | 17° |
| 2026-04-23 21:08 | 41.55158 | 33.51118 | 24024 ft | 447 kts | 17° |
| 2026-04-23 21:09 | 41.57131 | 33.52073 | 24030 ft | 445 kts | 17° |
| 2026-04-23 21:09 | 41.60031 | 33.53480 | 24036 ft | 443 kts | 17° |
| 2026-04-23 21:09 | 41.62935 | 33.54890 | 24033 ft | 447 kts | 17° |
| 2026-04-23 21:09 | 41.65854 | 33.56307 | 24036 ft | 455 kts | 17° |
| 2026-04-23 21:10 | 41.68886 | 33.57781 | 24029 ft | 459 kts | 17° |
| 2026-04-23 21:10 | 41.71837 | 33.59219 | 24020 ft | 456 kts | 17° |
| 2026-04-23 21:10 | 41.74856 | 33.60692 | 24027 ft | 455 kts | 17° |
| 2026-04-23 21:10 | 41.77799 | 33.62129 | 24027 ft | 454 kts | 17° |
| 2026-04-23 21:11 | 41.80761 | 33.63576 | 24019 ft | 453 kts | 17° |
| 2026-04-23 21:11 | 41.83719 | 33.65022 | 23995 ft | 451 kts | 17° |
| 2026-04-23 21:11 | 41.86641 | 33.66453 | 23680 ft | 443 kts | 17° |
| 2026-04-23 21:11 | 41.89505 | 33.67872 | 23100 ft | 436 kts | 19° |
| 2026-04-23 21:12 | 41.92107 | 33.69936 | 22481 ft | 437 kts | 38° |
| 2026-04-23 21:12 | 41.94061 | 33.73055 | 21883 ft | 438 kts | 56° |
| 2026-04-23 21:12 | 41.95339 | 33.76772 | 21211 ft | 440 kts | 72° |
| 2026-04-23 21:12 | 41.95838 | 33.80820 | 20617 ft | 438 kts | 84° |
| 2026-04-23 21:13 | 41.96066 | 33.84886 | 20010 ft | 435 kts | 85° |
| 2026-04-23 21:13 | 41.96253 | 33.88925 | 19419 ft | 432 kts | 86° |
| 2026-04-23 21:13 | 41.96436 | 33.92938 | 18830 ft | 429 kts | 86° |
| 2026-04-23 21:13 | 41.96626 | 33.96932 | 18218 ft | 427 kts | 85° |
| 2026-04-23 21:14 | 41.96825 | 34.00908 | 17568 ft | 425 kts | 85° |
| 2026-04-23 21:14 | 41.97033 | 34.04854 | 16952 ft | 421 kts | 85° |
| 2026-04-23 21:14 | 41.97244 | 34.08761 | 16354 ft | 418 kts | 85° |
| 2026-04-23 21:14 | 41.97455 | 34.12646 | 15791 ft | 415 kts | 85° |
| 2026-04-23 21:15 | 41.97664 | 34.16498 | 15221 ft | 412 kts | 85° |
| 2026-04-23 21:15 | 41.97871 | 34.20324 | 14653 ft | 409 kts | 85° |
| 2026-04-23 21:15 | 41.98075 | 34.24130 | 14088 ft | 407 kts | 85° |
| 2026-04-23 21:15 | 41.98277 | 34.27921 | 13463 ft | 405 kts | 85° |
| 2026-04-23 21:16 | 41.98476 | 34.31688 | 12871 ft | 403 kts | 85° |
| 2026-04-23 21:16 | 41.98670 | 34.35376 | 12287 ft | 399 kts | 85° |
| 2026-04-23 21:16 | 41.98863 | 34.39084 | 11718 ft | 396 kts | 85° |
| 2026-04-23 21:16 | 41.99054 | 34.42764 | 11160 ft | 393 kts | 85° |
| 2026-04-23 21:17 | 41.99240 | 34.46376 | 10950 ft | 380 kts | 85° |
| 2026-04-23 21:17 | 41.99418 | 34.49867 | 10773 ft | 368 kts | 85° |
| 2026-04-23 21:17 | 41.99590 | 34.53244 | 10612 ft | 357 kts | 85° |
| 2026-04-23 21:17 | 41.99756 | 34.56524 | 10456 ft | 346 kts | 85° |
| 2026-04-23 21:18 | 41.99916 | 34.59709 | 10303 ft | 336 kts | 84° |
| 2026-04-23 21:18 | 42.00072 | 34.62808 | 10164 ft | 327 kts | 84° |
| 2026-04-23 21:18 | 42.00224 | 34.65817 | 10028 ft | 318 kts | 84° |
| 2026-04-23 21:18 | 42.00368 | 34.68740 | 9949 ft | 308 kts | 84° |
| 2026-04-23 21:19 | 42.00508 | 34.71587 | 9579 ft | 308 kts | 84° |
| 2026-04-23 21:19 | 42.00650 | 34.74460 | 9276 ft | 307 kts | 84° |
| 2026-04-23 21:19 | 42.00790 | 34.77319 | 8946 ft | 305 kts | 84° |
| 2026-04-23 21:19 | 42.00927 | 34.80128 | 8630 ft | 304 kts | 85° |
| 2026-04-23 21:20 | 42.01063 | 34.82949 | 8330 ft | 302 kts | 85° |
| 2026-04-23 21:20 | 42.01198 | 34.85762 | 8033 ft | 300 kts | 85° |
| 2026-04-23 21:20 | 42.01332 | 34.88561 | 7743 ft | 299 kts | 85° |
| 2026-04-23 21:20 | 42.01465 | 34.91345 | 7454 ft | 297 kts | 85° |
| 2026-04-23 21:21 | 42.01594 | 34.94080 | 7172 ft | 295 kts | 85° |
| 2026-04-23 21:21 | 42.01725 | 34.96831 | 6876 ft | 294 kts | 85° |
| 2026-04-23 21:21 | 42.01854 | 34.99574 | 6585 ft | 293 kts | 85° |
| 2026-04-23 21:21 | 42.01981 | 35.02299 | 6297 ft | 291 kts | 85° |
| 2026-04-23 21:22 | 42.02107 | 35.05013 | 6001 ft | 290 kts | 85° |
| 2026-04-23 21:22 | 42.02394 | 35.07675 | 5686 ft | 287 kts | 67° |
| 2026-04-23 21:22 | 42.03386 | 35.09938 | 5476 ft | 278 kts | 50° |
| 2026-04-23 21:22 | 42.04536 | 35.12022 | 5197 ft | 276 kts | 50° |
| 2026-04-23 21:23 | 42.05682 | 35.14092 | 4942 ft | 275 kts | 50° |
| 2026-04-23 21:23 | 42.06812 | 35.16152 | 4697 ft | 272 kts | 51° |
| 2026-04-23 21:23 | 42.07925 | 35.18199 | 4448 ft | 270 kts | 51° |
| 2026-04-23 21:23 | 42.09026 | 35.20234 | 4243 ft | 266 kts | 51° |
| 2026-04-23 21:24 | 42.10097 | 35.22215 | 4129 ft | 258 kts | 49° |
| 2026-04-23 21:24 | 42.11406 | 35.23706 | 4012 ft | 237 kts | 14° |
| 2026-04-23 21:24 | 42.12920 | 35.23910 | 3962 ft | 207 kts | 342° |
| 2026-04-23 21:24 | 42.14169 | 35.23254 | 3860 ft | 188 kts | 320° |
| 2026-04-23 21:25 | 42.15088 | 35.22062 | 3632 ft | 186 kts | 297° |
| 2026-04-23 21:25 | 42.15314 | 35.20359 | 3129 ft | 187 kts | 259° |
| 2026-04-23 21:25 | 42.14757 | 35.18796 | 2783 ft | 186 kts | 231° |
| 2026-04-23 21:25 | 42.13738 | 35.17814 | 2549 ft | 172 kts | 218° |
| 2026-04-23 21:26 | 42.12765 | 35.16984 | 2318 ft | 160 kts | 219° |
| 2026-04-23 21:26 | 42.11827 | 35.16177 | 2018 ft | 164 kts | 214° |
| 2026-04-23 21:26 | 42.10722 | 35.15829 | 1800 ft | 164 kts | 187° |
| 2026-04-23 21:26 | 42.09714 | 35.15974 | 1817 ft | 133 kts | 180° |
| 2026-04-23 21:27 | 42.08765 | 35.16062 | 1728 ft | 135 kts | 187° |
| 2026-04-23 21:27 | 42.07839 | 35.15966 | 1470 ft | 132 kts | 196° |
| 2026-04-23 21:27 | 42.06950 | 35.15637 | 1195 ft | 131 kts | 210° |
| 2026-04-23 21:27 | 42.06194 | 35.14967 | 992 ft | 126 kts | 225° |
| 2026-04-23 21:28 | 42.05631 | 35.14095 | 946 ft | 122 kts | 234° |
| 2026-04-23 21:28 | 42.05126 | 35.13182 | 960 ft | 120 kts | 233° |
| 2026-04-23 21:28 | 42.04597 | 35.12246 | 859 ft | 130 kts | 233° |
| 2026-04-23 21:28 | 42.04075 | 35.11236 | 662 ft | 136 kts | 230° |
| 2026-04-23 21:29 | 42.03518 | 35.10238 | 495 ft | 130 kts | 231° |
| 2026-04-23 21:29 | 42.02979 | 35.09273 | 278 ft | 128 kts | 232° |
| 2026-04-23 21:29 | 42.02453 | 35.08308 | 112 ft | 130 kts | 232° |
| 2026-04-23 21:29 | 42.01924 | 35.07347 | 47 ft | 112 kts | 234° |
| 2026-04-23 21:30 | 42.01602 | 35.06755 | 49 ft | 32 kts | 235° |
| 2026-04-23 21:30 | 42.01569 | 35.06687 | 50 ft | 4 kts | 176° |
| 2026-04-23 21:30 | 42.01562 | 35.06718 | 50 ft | 5 kts | 63° |
| 2026-04-23 21:30 | 42.01632 | 35.06821 | 50 ft | 24 kts | 47° |
| 2026-04-23 21:31 | 42.01768 | 35.07058 | 48 ft | 38 kts | 54° |
| 2026-04-23 21:31 | 42.01924 | 35.07341 | 47 ft | 37 kts | 54° |
| 2026-04-23 21:31 | 42.02066 | 35.07601 | 49 ft | 22 kts | 53° |
| 2026-04-23 21:31 | 42.02067 | 35.07729 | 49 ft | 16 kts | 144° |
| 2026-04-23 21:32 | 42.01977 | 35.07802 | 49 ft | 15 kts | 171° |
| 2026-04-23 21:32 | 42.01920 | 35.07786 | 49 ft | 5 kts | 167° |
| 2026-04-23 21:32 | 42.01896 | 35.07801 | 48 ft | 2 kts | 143° |
| 2026-04-23 21:32 | 42.01895 | 35.07803 | 49 ft | 0 kts | 143° |